Time;durP1;ratioP1;P1;durP2;ratioP2;P2;SDS_P1;SDS_P2;PMS_P1;PMS_P2;Temp;Humidity;BMP_temperature;BMP_pressure;BME280_temperature;BME280_humidity;BME280_pressure;Samples;Min_cycle;Max_cycle;Signal;HPM_P1;HPM_P2
2023/03/01 08:30:29;;;;;;;;;;;-0.70;99.90;;;;;;6172242;23;19939;-88
2023/03/01 08:35:39;;;;;;;;;;;-0.40;99.90;;;;;;6179977;23;19932;-89
2023/03/01 08:38:13;;;;;;;;;;;-0.50;99.90;;;;;;6187056;23;19908;-87
2023/03/01 08:40:39;;;;;;;;;;;-0.40;99.90;;;;;;6162050;23;20345;-89
2023/03/01 08:43:04;;;;;;;;;;;-0.30;99.90;;;;;;6160407;23;19900;-89
2023/03/01 08:45:30;;;;;;;;;;;-0.50;99.90;;;;;;6185334;23;19920;-88
2023/03/01 08:47:55;;;;;;;;;;;-0.40;99.90;;;;;;6185646;23;19904;-89
2023/03/01 08:50:21;;;;;;;;;;;-0.30;99.90;;;;;;6185939;23;19954;-89
2023/03/01 08:52:46;;;;;;;;;;;-0.10;99.90;;;;;;6185978;23;19900;-89
2023/03/01 08:55:12;;;;;;;;;;;0.00;99.90;;;;;;6183796;23;19968;-89
2023/03/01 08:57:37;;;;;;;;;;;-0.20;99.90;;;;;;6184304;23;19948;-89
2023/03/01 09:00:03;;;;;;;;;;;-0.10;99.90;;;;;;6184680;23;19900;-91
2023/03/01 09:02:28;;;;;;;;;;;-0.10;99.90;;;;;;6184258;23;19900;-89
2023/03/01 09:04:54;;;;;;;;;;;-0.10;99.90;;;;;;6184555;23;19900;-89
2023/03/01 09:07:19;;;;;;;;;;;1.80;99.90;;;;;;6184980;23;19987;-91
2023/03/01 09:09:44;;;;;;;;;;;0.00;99.90;;;;;;6184130;23;20333;-89
2023/03/01 09:12:10;;;;;;;;;;;0.20;99.90;;;;;;6184514;23;19911;-90
2023/03/01 09:14:38;;;;;;;;;;;-0.10;99.90;;;;;;6184928;23;19949;-89
2023/03/01 09:17:04;;;;;;;;;;;1.70;99.90;;;;;;6184553;23;19900;-89
2023/03/01 09:19:30;;;;;;;;;;;1.30;99.90;;;;;;6183192;23;19983;-90
2023/03/01 09:21:55;;;;;;;;;;;-0.50;99.90;;;;;;6184151;23;19907;-90
2023/03/01 09:24:23;;;;;;;;;;;-0.20;99.90;;;;;;6182489;23;19935;-89
2023/03/01 09:26:49;;;;;;;;;;;0.40;99.90;;;;;;6184465;23;19971;-89
2023/03/01 09:29:15;;;;;;;;;;;0.20;99.90;;;;;;6184644;23;20344;-90
2023/03/01 09:31:41;;;;;;;;;;;0.60;99.90;;;;;;6185499;23;19912;-89
2023/03/01 09:34:07;;;;;;;;;;;0.40;99.90;;;;;;6182913;23;19904;-90
2023/03/01 09:36:33;;;;;;;;;;;1.50;99.90;;;;;;6183050;23;20325;-89
2023/03/01 09:38:59;;;;;;;;;;;2.40;99.90;;;;;;6182421;23;19954;-89
2023/03/01 09:41:25;;;;;;;;;;;0.60;99.90;;;;;;6182857;23;19978;-90
2023/03/01 09:43:55;;;;;;;;;;;1.30;99.90;;;;;;6182785;23;19904;-91
2023/03/01 09:46:22;;;;;;;;;;;1.10;99.90;;;;;;6183427;23;19990;-89
2023/03/01 09:48:54;;;;;;;;;;;1.10;99.90;;;;;;6182484;23;20423;-88
2023/03/01 09:51:30;;;;;;;;;;;1.40;99.90;;;;;;6182894;23;19904;-89
2023/03/01 09:53:58;;;;;;;;;;;1.80;99.90;;;;;;6182171;23;19950;-90
2023/03/01 09:56:26;;;;;;;;;;;0.80;99.90;;;;;;6184034;23;19900;-92
2023/03/01 09:59:11;;;;;;;;;;;1.80;99.90;;;;;;6182944;23;19948;-89
2023/03/01 10:01:53;;;;;;;;;;;2.20;99.90;;;;;;6182537;23;19951;-89
2023/03/01 10:04:37;;;;;;;;;;;1.00;99.90;;;;;;6182360;23;19907;-88
2023/03/01 10:07:09;;;;;;;;;;;2.00;99.90;;;;;;6183358;23;20317;-89
2023/03/01 10:09:36;;;;;;;;;;;2.20;99.90;;;;;;6182848;23;19905;-88
2023/03/01 10:12:04;;;;;;;;;;;2.30;99.90;;;;;;6183083;23;19946;-89
2023/03/01 10:14:35;;;;;;;;;;;2.50;99.90;;;;;;6181763;23;19908;-89
2023/03/01 10:17:08;;;;;;;;;;;2.50;99.90;;;;;;6183459;23;19900;-90
2023/03/01 10:19:38;;;;;;;;;;;2.60;99.90;;;;;;6182681;23;20329;-89
2023/03/01 10:22:14;;;;;;;;;;;2.60;99.90;;;;;;6184800;23;19987;-88
2023/03/01 10:24:40;;;;;;;;;;;2.80;99.90;;;;;;6182224;23;19904;-89
2023/03/01 10:27:09;;;;;;;;;;;2.80;99.90;;;;;;6183008;23;19928;-89
2023/03/01 10:29:37;;;;;;;;;;;2.80;99.90;;;;;;6182981;23;19901;-89
2023/03/01 10:32:03;;;;;;;;;;;2.80;99.90;;;;;;6183175;23;19900;-89
2023/03/01 10:34:34;;;;;;;;;;;3.00;99.90;;;;;;6183592;23;19963;-88
2023/03/01 10:37:18;;;;;;;;;;;3.10;99.90;;;;;;6184208;23;19908;-91
2023/03/01 10:39:57;;;;;;;;;;;3.10;99.90;;;;;;6182715;23;19911;-89
2023/03/01 10:42:33;;;;;;;;;;;3.10;99.90;;;;;;6183372;23;20287;-89
2023/03/01 10:45:14;;;;;;;;;;;3.20;99.90;;;;;;6184039;23;19927;-89
2023/03/01 10:47:40;;;;;;;;;;;3.10;99.90;;;;;;6182856;23;20309;-90
2023/03/01 10:50:06;;;;;;;;;;;3.20;99.90;;;;;;6184626;23;19900;-89
2023/03/01 10:52:31;;;;;;;;;;;3.30;99.90;;;;;;6181849;23;20011;-92
2023/03/01 10:54:58;;;;;;;;;;;3.20;99.90;;;;;;6183240;23;19900;-89
2023/03/01 10:57:28;;;;;;;;;;;3.20;99.90;;;;;;6184949;23;19935;-89
2023/03/01 11:00:01;;;;;;;;;;;3.30;99.90;;;;;;6183950;23;19904;-90
2023/03/01 11:02:29;;;;;;;;;;;3.50;99.90;;;;;;6184968;23;19900;-89
2023/03/01 11:05:17;;;;;;;;;;;3.50;99.90;;;;;;6183508;23;19931;-89
2023/03/01 11:07:46;;;;;;;;;;;3.50;99.90;;;;;;6178401;23;19954;-90
2023/03/01 11:10:12;;;;;;;;;;;3.70;99.90;;;;;;6183612;23;19904;-89
2023/03/01 11:12:37;;;;;;;;;;;3.70;99.90;;;;;;6181459;23;20349;-90
2023/03/01 11:15:03;;;;;;;;;;;3.70;99.90;;;;;;6181420;23;19904;-90
2023/03/01 11:17:31;;;;;;;;;;;3.80;99.90;;;;;;6182566;23;19900;-89
2023/03/01 11:20:00;;;;;;;;;;;3.90;99.90;;;;;;6183650;23;20011;-89
2023/03/01 11:22:26;;;;;;;;;;;3.90;99.90;;;;;;6183976;23;19954;-90
2023/03/01 11:24:53;;;;;;;;;;;3.90;99.90;;;;;;6183487;23;19900;-90
2023/03/01 11:27:19;;;;;;;;;;;3.50;99.90;;;;;;6184041;23;19923;-89
2023/03/01 11:29:50;;;;;;;;;;;3.90;99.90;;;;;;6184573;23;19904;-89
2023/03/01 11:32:16;;;;;;;;;;;3.90;99.90;;;;;;6184016;23;19900;-90
2023/03/01 11:34:56;;;;;;;;;;;4.00;99.90;;;;;;6183115;23;19951;-89
2023/03/01 11:37:28;;;;;;;;;;;4.00;99.90;;;;;;6182762;23;20313;-90
2023/03/01 11:39:58;;;;;;;;;;;4.10;99.40;;;;;;6184368;23;19987;-89
2023/03/01 11:42:37;;;;;;;;;;;4.30;98.70;;;;;;6182999;23;19904;-89
2023/03/01 11:45:07;;;;;;;;;;;4.40;97.70;;;;;;6183447;23;20051;-90
2023/03/01 11:47:44;;;;;;;;;;;4.30;97.70;;;;;;6182404;23;20229;-90
2023/03/01 11:50:13;;;;;;;;;;;4.30;98.90;;;;;;6183944;23;19912;-88
2023/03/01 11:52:51;;;;;;;;;;;4.40;98.50;;;;;;6181527;23;19905;-88
2023/03/01 11:55:17;;;;;;;;;;;4.50;98.40;;;;;;6184393;23;19900;-87
2023/03/01 11:58:03;;;;;;;;;;;4.70;96.10;;;;;;6185013;23;20013;-87
2023/03/01 12:00:47;;;;;;;;;;;4.70;96.50;;;;;;6184852;23;19975;-87
2023/03/01 12:03:22;;;;;;;;;;;4.80;96.70;;;;;;6179315;23;19905;-89
2023/03/01 12:05:48;;;;;;;;;;;4.90;96.80;;;;;;6186437;23;19904;-87
2023/03/01 12:08:17;;;;;;;;;;;5.00;95.80;;;;;;6183684;23;19990;-89
2023/03/01 12:10:45;;;;;;;;;;;5.00;96.30;;;;;;6183513;23;20000;-88
2023/03/01 12:13:29;;;;;;;;;;;5.10;95.90;;;;;;6178515;23;19900;-87
2023/03/01 12:16:07;;;;;;;;;;;5.10;96.70;;;;;;6181271;23;19900;-87
2023/03/01 12:18:49;;;;;;;;;;;5.20;94.80;;;;;;6185753;23;19979;-86
2023/03/01 12:21:21;;;;;;;;;;;5.20;94.10;;;;;;6184179;23;19916;-88
2023/03/01 12:23:47;;;;;;;;;;;5.20;94.50;;;;;;6182815;23;19975;-88
2023/03/01 12:26:33;;;;;;;;;;;5.30;94.00;;;;;;6183332;23;19915;-88
2023/03/01 12:29:09;;;;;;;;;;;5.20;93.50;;;;;;6184570;23;20341;-87
2023/03/01 12:31:43;;;;;;;;;;;5.30;93.20;;;;;;6185743;23;20356;-87
2023/03/01 12:34:19;;;;;;;;;;;5.30;92.70;;;;;;6183473;23;19904;-87
2023/03/01 12:37:07;;;;;;;;;;;5.20;93.80;;;;;;6185549;23;20237;-88
2023/03/01 12:39:50;;;;;;;;;;;5.30;93.70;;;;;;6182794;23;19904;-87
2023/03/01 12:42:27;;;;;;;;;;;5.30;93.10;;;;;;6183800;23;19904;-86
2023/03/01 12:45:12;;;;;;;;;;;5.30;93.90;;;;;;6183083;23;19922;-87
2023/03/01 12:47:40;;;;;;;;;;;5.40;92.00;;;;;;6186354;23;20317;-88
2023/03/01 12:50:20;;;;;;;;;;;5.50;91.80;;;;;;6186358;23;20383;-87
2023/03/01 12:52:45;;;;;;;;;;;5.50;92.30;;;;;;6184132;23;19955;-87
2023/03/01 12:55:37;;;;;;;;;;;5.50;93.50;;;;;;6184587;23;19904;-86
2023/03/01 12:58:15;;;;;;;;;;;5.50;93.70;;;;;;6151180;23;20199;-87
2023/03/01 13:00:46;;;;;;;;;;;5.70;93.30;;;;;;6184764;23;20257;-88
2023/03/01 13:03:35;;;;;;;;;;;5.70;92.00;;;;;;6183757;23;19923;-88
2023/03/01 13:06:06;;;;;;;;;;;5.70;92.00;;;;;;6185285;23;19905;-87
2023/03/01 13:08:32;;;;;;;;;;;4.00;91.30;;;;;;6184828;23;19919;-88
2023/03/01 13:11:05;;;;;;;;;;;7.20;91.90;;;;;;6188144;23;19900;-90
2023/03/01 13:13:30;;;;;;;;;;;8.60;92.80;;;;;;6187196;23;20360;-86
2023/03/01 13:15:57;;;;;;;;;;;5.70;92.40;;;;;;6185858;23;19904;-87
2023/03/01 13:18:23;;;;;;;;;;;5.80;92.60;;;;;;6186068;23;19939;-86
2023/03/01 13:20:49;;;;;;;;;;;6.00;91.50;;;;;;6187898;23;19908;-87
2023/03/01 13:23:21;;;;;;;;;;;5.90;90.30;;;;;;6186511;23;19914;-88
2023/03/01 13:26:02;;;;;;;;;;;5.90;90.50;;;;;;6181482;23;19904;-88
2023/03/01 13:28:40;;;;;;;;;;;5.80;91.50;;;;;;6184373;23;19904;-87
2023/03/01 13:31:06;;;;;;;;;;;5.90;91.60;;;;;;6186165;23;19904;-87
2023/03/01 13:33:33;;;;;;;;;;;5.90;91.40;;;;;;6186117;23;20351;-87
2023/03/01 13:35:59;;;;;;;;;;;5.90;90.90;;;;;;6186871;23;19912;-89
2023/03/01 13:38:45;;;;;;;;;;;5.90;90.50;;;;;;6183882;23;19962;-87
2023/03/01 13:41:12;;;;;;;;;;;6.00;90.70;;;;;;6184678;23;19900;-88
2023/03/01 13:43:40;;;;;;;;;;;6.00;90.80;;;;;;6187042;23;19920;-86
2023/03/01 13:46:20;;;;;;;;;;;6.00;90.80;;;;;;6184475;23;19932;-87
2023/03/01 13:48:53;;;;;;;;;;;6.00;90.70;;;;;;6185365;23;19900;-86
2023/03/01 13:51:22;;;;;;;;;;;6.00;91.00;;;;;;6183661;23;20340;-87
2023/03/01 13:53:48;;;;;;;;;;;6.80;91.10;;;;;;6182902;23;20383;-89
2023/03/01 13:56:19;;;;;;;;;;;5.80;92.30;;;;;;6188611;23;19900;-90
2023/03/01 13:58:49;;;;;;;;;;;5.90;91.10;;;;;;6190136;23;19915;-89
2023/03/01 14:01:20;;;;;;;;;;;6.20;90.00;;;;;;6185038;23;19900;-88
2023/03/01 14:03:46;;;;;;;;;;;6.20;89.30;;;;;;6184731;23;19907;-88
2023/03/01 14:06:17;;;;;;;;;;;6.10;88.80;;;;;;6182608;23;20324;-88
2023/03/01 14:08:43;;;;;;;;;;;6.20;89.30;;;;;;6181618;23;19955;-90
2023/03/01 14:11:18;;;;;;;;;;;6.00;90.20;;;;;;6178693;23;19911;-90
2023/03/01 14:14:02;;;;;;;;;;;6.30;90.10;;;;;;6181456;23;19975;-90
2023/03/01 14:16:47;;;;;;;;;;;6.30;89.60;;;;;;6180723;23;20280;-89
2023/03/01 14:19:25;;;;;;;;;;;6.40;86.50;;;;;;6179942;23;19935;-91
2023/03/01 14:22:09;;;;;;;;;;;6.30;87.70;;;;;;6180767;23;19958;-89
2023/03/01 14:24:38;;;;;;;;;;;6.30;89.30;;;;;;6183571;23;19904;-90
2023/03/01 14:27:09;;;;;;;;;;;6.30;87.90;;;;;;6181976;23;19938;-90
2023/03/01 14:29:36;;;;;;;;;;;6.40;88.00;;;;;;6181735;23;19907;-90
2023/03/01 14:32:10;;;;;;;;;;;6.40;87.60;;;;;;6180669;23;20321;-92
2023/03/01 14:34:42;;;;;;;;;;;6.40;84.90;;;;;;6181030;23;19927;-90
2023/03/01 14:37:26;;;;;;;;;;;6.40;86.50;;;;;;6180569;23;19911;-90
2023/03/01 14:39:52;;;;;;;;;;;6.40;86.90;;;;;;6179517;23;19943;-90
2023/03/01 14:42:19;;;;;;;;;;;6.20;86.00;;;;;;6179193;23;19950;-90
2023/03/01 14:44:46;;;;;;;;;;;6.40;86.00;;;;;;6178684;23;19928;-89
2023/03/01 14:47:14;;;;;;;;;;;6.40;86.40;;;;;;6178676;23;19970;-90
2023/03/01 14:49:41;;;;;;;;;;;7.30;86.20;;;;;;6183111;23;19927;-90
2023/03/01 14:52:07;;;;;;;;;;;6.20;85.70;;;;;;6181043;23;19900;-90
2023/03/01 14:54:40;;;;;;;;;;;6.40;85.50;;;;;;6180836;23;20245;-90
2023/03/01 14:57:05;;;;;;;;;;;5.50;86.50;;;;;;6181063;23;19900;-90
2023/03/01 14:59:33;;;;;;;;;;;6.70;86.50;;;;;;6180190;23;20340;-90
2023/03/01 15:01:58;;;;;;;;;;;6.50;85.00;;;;;;6179715;23;19907;-90
2023/03/01 15:04:25;;;;;;;;;;;6.30;86.10;;;;;;6182183;23;19900;-89
2023/03/01 15:06:52;;;;;;;;;;;6.30;85.80;;;;;;6183951;23;19989;-91
2023/03/01 15:09:18;;;;;;;;;;;6.40;86.10;;;;;;6183005;23;19900;-87
2023/03/01 15:11:44;;;;;;;;;;;6.50;84.20;;;;;;6181780;23;19911;-88
2023/03/01 15:14:28;;;;;;;;;;;9.10;86.20;;;;;;6180924;23;19908;-90
2023/03/01 15:16:54;;;;;;;;;;;6.50;85.10;;;;;;6181314;23;19900;-89
2023/03/01 15:19:20;;;;;;;;;;;6.00;86.30;;;;;;6185355;23;19915;-90
2023/03/01 15:21:48;;;;;;;;;;;6.40;86.00;;;;;;6182921;23;19923;-90
2023/03/01 15:24:19;;;;;;;;;;;6.30;86.60;;;;;;6184723;23;19924;-90
2023/03/01 15:26:50;;;;;;;;;;;9.10;87.60;;;;;;6178545;23;19978;-90
2023/03/01 15:29:21;;;;;;;;;;;6.60;84.70;;;;;;6184624;23;20219;-91
2023/03/01 15:34:25;;;;;;;0.10;0.10;;;6.60;84.60;;;;;;5153756;27;20210;-91
2023/03/01 15:36:56;;;;;;;0.10;0.10;;;6.60;85.40;;;;;;5151686;27;20019;-90
2023/03/01 15:39:43;;;;;;;0.10;0.10;;;6.60;84.80;;;;;;5156990;27;20014;-89
2023/03/01 15:42:27;;;;;;;0.10;0.10;;;6.50;85.20;;;;;;5167411;27;20019;-91
2023/03/01 15:45:07;;;;;;;0.10;0.10;;;6.50;84.20;;;;;;5165969;27;20022;-90
2023/03/01 15:47:34;;;;;;;0.00;0.00;;;6.50;84.60;;;;;;5164935;27;20160;-90
2023/03/01 15:50:01;;;;;;;0.05;0.05;;;;;;;;;;5163759;27;20041;-91
2023/03/01 15:52:36;;;;;;;0.10;0.10;;;6.40;85.30;;;;;;5165202;27;20035;-91
2023/03/01 15:55:06;;;;;;;0.00;0.00;;;6.40;84.80;;;;;;5164256;27;20022;-90
2023/03/01 15:57:32;;;;;;;0.10;0.10;;;;;;;;;;5171439;27;20022;-91
2023/03/01 15:59:58;;;;;;;0.10;0.10;;;;;;;;;;5160169;27;20158;-91
2023/03/01 16:02:24;;;;;;;0.10;0.10;;;;;;;;;;5159237;27;20062;-90
2023/03/01 16:04:50;;;;;;;0.10;0.10;;;;;;;;;;5154811;27;20105;-91
2023/03/01 16:07:17;;;;;;;0.10;0.10;;;;;;;;;;5160041;27;20030;-91
2023/03/01 16:09:45;;;;;;;0.00;0.00;;;;;;;;;;5154592;27;20094;-91
2023/03/01 16:12:16;;;;;;;0.10;0.10;;;6.20;85.60;;;;;;5161015;27;20311;-90
2023/03/01 16:14:42;;;;;;;0.10;0.10;;;;;;;;;;5158490;27;20027;-90
2023/03/01 16:17:09;;;;;;;0.10;0.10;;;;;;;;;;5158758;27;20030;-89
2023/03/01 16:19:37;;;;;;;0.10;0.10;;;;;;;;;;5161350;27;20027;-90
2023/03/01 16:22:03;;;;;;;0.10;0.10;;;;;;;;;;5154647;27;20492;-89
2023/03/01 16:24:29;;;;;;;0.10;0.10;;;;;;;;;;5158397;27;20023;-90
2023/03/01 16:26:54;;;;;;;0.10;0.10;;;;;;;;;;5158322;27;20034;-91
2023/03/01 16:29:20;;;;;;;0.10;0.10;;;;;;;;;;5160427;27;20023;-90
2023/03/01 16:31:47;;;;;;;0.00;0.00;;;;;;;;;;5157526;27;20377;-90
2023/03/01 16:34:13;;;;;;;0.10;0.10;;;;;;;;;;5160220;27;20049;-91
2023/03/01 16:36:39;;;;;;;0.10;0.10;;;;;;;;;;5158409;27;20547;-89
2023/03/01 16:39:06;;;;;;;0.10;0.10;;;;;;;;;;5150895;27;20054;-89
2023/03/01 16:41:32;;;;;;;0.10;0.10;;;;;;;;;;5156754;27;20018;-89
2023/03/01 16:43:58;;;;;;;0.10;0.10;;;;;;;;;;5151096;27;20559;-89
2023/03/01 16:46:27;;;;;;;0.10;0.10;;;5.00;92.20;;;;;;5144876;27;20027;-89
2023/03/01 16:48:53;;;;;;;0.10;0.10;;;;;;;;;;5149071;27;20026;-88
2023/03/01 16:51:20;;;;;;;0.10;0.10;;;5.00;91.80;;;;;;5145792;27;20031;-90
2023/03/01 16:53:46;;;;;;;0.10;0.10;;;;;;;;;;5143498;27;20030;-90
2023/03/01 16:56:12;;;;;;;0.10;0.10;;;5.00;91.50;;;;;;5135966;27;20090;-90
2023/03/01 16:58:38;;;;;;;0.10;0.10;;;;;;;;;;5139980;27;20404;-90
2023/03/01 17:01:10;;;;;;;0.10;0.10;;;4.70;93.00;;;;;;5143012;27;20026;-89
2023/03/01 17:03:37;;;;;;;0.10;0.10;;;4.60;93.70;;;;;;5143711;27;20122;-90
2023/03/01 17:06:08;;;;;;;0.10;0.10;;;4.50;94.10;;;;;;5135937;27;20087;-91
2023/03/01 17:08:34;;;;;;;0.10;0.10;;;;;;;;;;5137180;27;20142;-90
2023/03/01 17:11:05;;;;;;;0.10;0.10;;;4.30;95.20;;;;;;5138155;27;20393;-90
2023/03/01 17:13:31;;;;;;;0.10;0.10;;;;;;;;;;5142903;27;20042;-91
2023/03/01 17:15:58;;;;;;;0.10;0.10;;;;;;;;;;5138050;27;20030;-90
2023/03/01 17:18:24;;;;;;;0.10;0.10;;;;;;;;;;5139710;27;20037;-90
2023/03/01 17:20:50;;;;;;;0.10;0.10;;;;;;;;;;5137968;27;20030;-91
2023/03/01 17:23:16;;;;;;;0.10;0.10;;;;;;;;;;5143863;27;20031;-91
2023/03/01 17:25:44;;;;;;;0.10;0.10;;;4.00;95.80;;;;;;5137914;27;20445;-90
2023/03/01 17:28:10;;;;;;;0.00;0.00;;;;;;;;;;5137264;27;20276;-90
2023/03/01 17:30:36;;;;;;;0.10;0.10;;;;;;;;;;5132857;27;20031;-90
2023/03/01 17:33:02;;;;;;;0.10;0.10;;;;;;;;;;5134314;27;20042;-90
2023/03/01 17:35:28;;;;;;;0.10;0.10;;;;;;;;;;5138159;27;20034;-90
2023/03/01 17:37:54;;;;;;;0.10;0.10;;;;;;;;;;5134205;27;20047;-89
2023/03/01 17:40:20;;;;;;;0.10;0.10;;;;;;;;;;5147180;27;20016;-89
2023/03/01 17:42:45;;;;;;;0.10;0.10;;;;;;;;;;5139596;27;20038;-91
2023/03/01 17:45:11;;;;;;;0.10;0.10;;;;;;;;;;5134352;27;20118;-90
2023/03/01 17:47:37;;;;;;;0.10;0.10;;;;;;;;;;5139127;27;20050;-90
2023/03/01 17:50:05;;;;;;;0.10;0.10;;;;;;;;;;5143033;27;20449;-90
2023/03/01 17:52:31;;;;;;;0.10;0.10;;;;;;;;;;5135232;27;20023;-90
2023/03/01 17:54:57;;;;;;;0.10;0.10;;;;;;;;;;5137697;27;20034;-90
2023/03/01 17:57:23;;;;;;;0.10;0.10;;;;;;;;;;5136990;27;20019;-90
2023/03/01 17:59:49;;;;;;;0.10;0.10;;;;;;;;;;5134712;27;20054;-91
2023/03/01 18:02:15;;;;;;;0.10;0.10;;;;;;;;;;5133499;27;20076;-90
2023/03/01 18:04:41;;;;;;;0.10;0.10;;;;;;;;;;5141315;27;20030;-90
2023/03/01 18:07:07;;;;;;;0.10;0.10;;;;;;;;;;5136928;27;20034;-90
2023/03/01 18:09:33;;;;;;;0.10;0.10;;;;;;;;;;5139191;27;20035;-89
2023/03/01 18:11:59;;;;;;;0.10;0.10;;;;;;;;;;5140226;27;20035;-90
2023/03/01 18:14:28;;;;;;;0.10;0.10;;;;;;;;;;5142851;27;20102;-90
2023/03/01 18:16:54;;;;;;;0.10;0.10;;;;;;;;;;5137850;27;20023;-90
2023/03/01 18:19:20;;;;;;;0.10;0.10;;;;;;;;;;5136821;27;20031;-90
2023/03/01 18:21:46;;;;;;;0.10;0.10;;;;;;;;;;5137528;27;20027;-90
2023/03/01 18:24:12;;;;;;;0.10;0.10;;;;;;;;;;5134801;27;20050;-90
2023/03/01 18:26:38;;;;;;;0.10;0.10;;;;;;;;;;5134548;27;20508;-91
2023/03/01 18:29:03;;;;;;;0.10;0.10;;;;;;;;;;5136918;27;20034;-89
2023/03/01 18:31:32;;;;;;;0.10;0.10;;;;;;;;;;5133992;27;20026;-87
2023/03/01 18:33:59;;;;;;;0.10;0.10;;;;;;;;;;5132757;27;20030;-90
2023/03/01 18:36:27;;;;;;;0.10;0.10;;;2.60;99.90;;;;;;5134296;27;20040;-89
2023/03/01 18:38:55;;;;;;;0.10;0.10;;;;;;;;;;5137194;27;20155;-91
2023/03/01 18:41:21;;;;;;;0.08;0.08;;;;;;;;;;5141380;27;20023;-90
2023/03/01 18:43:47;;;;;;;0.10;0.10;;;;;;;;;;5135704;27;20026;-89
2023/03/01 18:46:13;;;;;;;0.10;0.10;;;;;;;;;;5133763;27;20029;-90
2023/03/01 18:48:39;;;;;;;0.00;0.00;;;;;;;;;;5139686;27;20038;-89
2023/03/01 18:51:17;;;;;;;0.10;0.10;;;2.50;99.90;;;;;;5140360;27;20477;-89
2023/03/01 18:53:43;;;;;;;0.10;0.10;;;;;;;;;;5136297;27;20062;-91
2023/03/01 18:56:09;;;;;;;0.10;0.10;;;;;;;;;;5132418;27;20031;-90
2023/03/01 18:58:36;;;;;;;0.10;0.10;;;;;;;;;;5132337;27;20033;-90
2023/03/01 19:01:05;;;;;;;0.10;0.10;;;;;;;;;;5136285;27;20027;-90
2023/03/01 19:03:31;;;;;;;0.00;0.00;;;;;;;;;;5140656;27;20034;-90
2023/03/01 19:05:57;;;;;;;0.10;0.10;;;2.30;99.90;;;;;;5144669;27;20109;-90
2023/03/01 19:08:23;;;;;;;0.10;0.10;;;2.30;99.90;;;;;;5139302;27;20054;-90
2023/03/01 19:11:00;;;;;;;0.10;0.10;;;2.40;99.90;;;;;;5134378;27;20449;-90
2023/03/01 19:13:26;;;;;;;0.10;0.10;;;;;;;;;;5135918;27;20113;-90
2023/03/01 19:15:52;;;;;;;0.10;0.10;;;;;;;;;;5133307;27;20172;-90
2023/03/01 19:18:18;;;;;;;0.10;0.10;;;;;;;;;;5128036;27;20553;-89
2023/03/01 19:20:44;;;;;;;0.10;0.10;;;;;;;;;;5146872;27;20310;-90
2023/03/01 19:23:10;;;;;;;0.10;0.10;;;;;;;;;;5137261;27;20153;-89
2023/03/01 19:25:36;;;;;;;0.00;0.00;;;;;;;;;;5134288;27;20030;-90
2023/03/01 19:28:02;;;;;;;0.10;0.10;;;;;;;;;;5136584;27;20079;-90
2023/03/01 19:30:28;;;;;;;0.10;0.10;;;;;;;;;;5133842;27;20075;-89
2023/03/01 19:32:54;;;;;;;0.00;0.00;;;;;;;;;;5133347;27;20041;-89
2023/03/01 19:35:20;;;;;;;0.00;0.00;;;;;;;;;;5135701;27;20192;-90
2023/03/01 19:37:46;;;;;;;0.10;0.10;;;;;;;;;;5134384;27;20203;-90
2023/03/01 19:40:12;;;;;;;0.10;0.10;;;;;;;;;;5133540;27;20027;-92
2023/03/01 19:42:38;;;;;;;0.10;0.10;;;;;;;;;;5135428;27;20038;-91
2023/03/01 19:45:04;;;;;;;0.10;0.10;;;;;;;;;;5133393;27;20027;-90
2023/03/01 19:47:30;;;;;;;0.10;0.10;;;;;;;;;;5134140;27;20027;-90
2023/03/01 19:49:56;;;;;;;0.10;0.10;;;;;;;;;;5134749;27;20027;-91
2023/03/01 19:52:21;;;;;;;0.10;0.10;;;2.10;99.90;;;;;;5133617;27;20056;-88
2023/03/01 19:54:47;;;;;;;0.00;0.00;;;1.90;99.90;;;;;;5141641;27;20110;-89
2023/03/01 19:57:12;;;;;;;0.10;0.10;;;2.00;99.90;;;;;;5135768;27;20023;-90
2023/03/01 19:59:38;;;;;;;0.10;0.10;;;2.70;99.90;;;;;;5138303;27;20409;-91
2023/03/01 20:02:04;;;;;;;0.05;0.05;;;;;;;;;;5138355;27;20045;-91
2023/03/01 20:04:29;;;;;;;0.10;0.10;;;2.00;99.90;;;;;;5134171;27;20031;-91
2023/03/01 20:06:55;;;;;;;0.10;0.10;;;;;;;;;;5129901;27;20368;-90
2023/03/01 20:09:21;;;;;;;0.10;0.10;;;;;;;;;;5130320;27;20026;-90
2023/03/01 20:11:47;;;;;;;0.10;0.10;;;;;;;;;;5139855;27;20476;-90
2023/03/01 20:14:13;;;;;;;0.10;0.10;;;;;;;;;;5136081;27;20023;-91
2023/03/01 20:16:39;;;;;;;0.10;0.10;;;2.00;99.90;;;;;;5137954;27;20028;-91
2023/03/01 20:19:04;;;;;;;0.10;0.10;;;2.00;99.90;;;;;;5131582;27;20469;-89
2023/03/01 20:21:32;;;;;;;0.10;0.10;;;;;;;;;;5137221;27;20031;-90
2023/03/01 20:23:58;;;;;;;0.10;0.10;;;;;;;;;;5136473;27;20110;-90
2023/03/01 20:26:25;;;;;;;0.10;0.10;;;;;;;;;;5138263;27;20034;-90
2023/03/01 20:28:52;;;;;;;0.10;0.10;;;1.80;99.90;;;;;;5136792;27;20026;-89
2023/03/01 20:31:19;;;;;;;0.10;0.10;;;1.70;99.90;;;;;;5138695;27;20031;-90
2023/03/01 20:33:45;;;;;;;0.10;0.10;;;1.60;99.90;;;;;;5138604;27;20038;-90
2023/03/01 20:36:11;;;;;;;0.10;0.10;;;4.90;99.90;;;;;;5140895;27;20030;-89
2023/03/01 20:38:37;;;;;;;0.03;0.03;;;;;;;;;;5140562;27;20471;-90
2023/03/01 20:41:05;;;;;;;0.10;0.10;;;1.60;99.90;;;;;;5138301;27;20469;-90
2023/03/01 20:43:32;;;;;;;0.10;0.10;;;1.60;99.90;;;;;;5138036;27;20027;-89
2023/03/01 20:45:58;;;;;;;0.00;0.00;;;;;;;;;;5141396;27;20117;-90
2023/03/01 20:48:24;;;;;;;0.10;0.10;;;;;;;;;;5135768;27;20653;-89
2023/03/01 20:50:50;;;;;;;0.10;0.10;;;;;;;;;;5142469;27;20039;-90
2023/03/01 20:53:16;;;;;;;0.10;0.10;;;;;;;;;;5141727;27;20404;-90
2023/03/01 20:55:42;;;;;;;0.08;0.08;;;;;;;;;;5142671;27;20027;-90
2023/03/01 20:58:08;;;;;;;0.10;0.10;;;;;;;;;;5140424;27;20691;-92
2023/03/01 21:00:34;;;;;;;0.05;0.05;;;;;;;;;;5138472;27;20418;-91
2023/03/01 21:03:00;;;;;;;0.10;0.10;;;;;;;;;;5135318;27;20041;-91
2023/03/01 21:05:26;;;;;;;0.10;0.10;;;;;;;;;;5135138;27;20070;-91
2023/03/01 21:07:52;;;;;;;0.10;0.10;;;;;;;;;;5135851;27;20058;-89
2023/03/01 21:10:18;;;;;;;0.10;0.10;;;;;;;;;;5138925;27;20037;-90
2023/03/01 21:12:44;;;;;;;0.10;0.10;;;;;;;;;;5138208;27;20444;-90
2023/03/01 21:15:10;;;;;;;0.10;0.10;;;;;;;;;;5133755;27;20027;-91
2023/03/01 21:17:36;;;;;;;0.08;0.08;;;;;;;;;;5135193;27;20034;-90
2023/03/01 21:20:03;;;;;;;0.10;0.10;;;;;;;;;;5136610;27;20417;-89
2023/03/01 21:22:31;;;;;;;0.08;0.08;;;;;;;;;;5133076;27;20059;-91
2023/03/01 21:24:57;;;;;;;0.10;0.10;;;;;;;;;;5142182;27;20133;-90
2023/03/01 21:27:23;;;;;;;0.10;0.10;;;;;;;;;;5142284;27;20038;-90
2023/03/01 21:29:49;;;;;;;0.10;0.10;;;;;;;;;;5134584;27;20035;-90
2023/03/01 21:32:15;;;;;;;0.10;0.10;;;1.20;99.90;;;;;;5130904;27;20504;-90
2023/03/01 21:34:41;;;;;;;0.10;0.10;;;;;;;;;;5139908;27;20034;-90
2023/03/01 21:37:09;;;;;;;0.00;0.00;;;1.30;99.90;;;;;;5137464;27;20026;-90
2023/03/01 21:39:35;;;;;;;0.10;0.10;;;;;;;;;;5137230;27;20027;-90
2023/03/01 21:42:02;;;;;;;0.08;0.08;;;1.10;99.90;;;;;;5136776;27;20040;-90
2023/03/01 21:44:29;;;;;;;0.10;0.10;;;1.10;99.90;;;;;;5133333;27;20118;-90
2023/03/01 21:46:56;;;;;;;0.10;0.10;;;1.00;99.90;;;;;;5138744;27;20027;-90
2023/03/01 21:49:22;;;;;;;0.10;0.10;;;;;;;;;;5136560;27;20051;-89
2023/03/01 21:51:48;;;;;;;0.10;0.10;;;;;;;;;;5142706;27;20088;-89
2023/03/01 21:54:16;;;;;;;0.00;0.00;;;1.00;99.90;;;;;;5133512;27;20092;-89
2023/03/01 21:56:43;;;;;;;0.10;0.10;;;1.00;99.90;;;;;;5138373;27;20038;-88
2023/03/01 21:59:17;;;;;;;0.10;0.10;;;0.60;99.90;;;;;;5139949;27;20864;-89
2023/03/01 22:01:43;;;;;;;0.05;0.05;;;;;;;;;;5150396;27;20633;-88
2023/03/01 22:04:11;;;;;;;0.10;0.10;;;;;;;;;;5143898;27;20030;-88
2023/03/01 22:06:39;;;;;;;0.10;0.10;;;0.90;99.90;;;;;;5139547;27;20026;-88
2023/03/01 22:09:10;;;;;;;0.10;0.10;;;0.80;99.90;;;;;;5137138;27;20027;-88
2023/03/01 22:11:38;;;;;;;0.10;0.10;;;0.80;99.90;;;;;;5145090;27;20148;-89
2023/03/01 22:14:05;;;;;;;0.00;0.00;;;;;;;;;;5142182;27;20029;-89
2023/03/01 22:16:32;;;;;;;0.10;0.10;;;0.80;99.90;;;;;;5136204;27;20042;-89
2023/03/01 22:18:58;;;;;;;0.10;0.10;;;;;;;;;;5139566;27;20035;-89
2023/03/01 22:21:24;;;;;;;0.10;0.10;;;0.70;99.90;;;;;;5137600;27;20032;-87
2023/03/01 22:23:52;;;;;;;0.10;0.10;;;0.70;99.90;;;;;;5137441;27;20534;-89
2023/03/01 22:26:26;;;;;;;0.10;0.10;;;0.60;99.90;;;;;;5139155;27;20454;-89
2023/03/01 22:28:54;;;;;;;0.10;0.10;;;0.70;99.90;;;;;;5148256;27;20041;-89
2023/03/01 22:31:20;;;;;;;0.10;0.10;;;0.70;99.90;;;;;;5136936;27;20027;-89
2023/03/01 22:33:45;;;;;;;0.10;0.10;;;0.70;99.90;;;;;;5142419;27;20026;-88
2023/03/01 22:36:11;;;;;;;0.10;0.10;;;0.70;99.90;;;;;;5134718;27;20541;-87
2023/03/01 22:38:38;;;;;;;0.10;0.10;;;0.60;99.90;;;;;;5143280;27;20446;-88
2023/03/01 22:41:04;;;;;;;0.00;0.00;;;0.60;99.90;;;;;;5138900;27;20079;-90
2023/03/01 22:43:31;;;;;;;0.10;0.10;;;0.60;99.90;;;;;;5137491;27;20030;-89
2023/03/01 22:45:57;;;;;;;0.10;0.10;;;0.70;99.90;;;;;;5138487;27;20113;-89
2023/03/01 22:48:23;;;;;;;0.10;0.10;;;0.70;99.90;;;;;;5144608;27;20062;-88
2023/03/01 22:50:49;;;;;;;0.10;0.10;;;0.70;99.90;;;;;;5138841;27;20030;-89
2023/03/01 22:53:15;;;;;;;0.08;0.08;;;0.60;99.90;;;;;;5139399;27;20090;-88
2023/03/01 22:55:41;;;;;;;0.10;0.10;;;0.60;99.90;;;;;;5142805;27;20477;-88
2023/03/01 22:58:07;;;;;;;0.10;0.10;;;0.60;99.90;;;;;;5143255;27;20182;-88
2023/03/01 23:00:33;;;;;;;0.10;0.10;;;;;;;;;;5132420;27;20031;-88